sensor_id;sensor_type;location;lat;lon;timestamp;temperature;humidity
36002;DHT22;22070;50.922;5.430;2023-12-20T00:00:26;7.80;99.90
36002;DHT22;22070;50.922;5.430;2023-12-20T00:02:51;7.70;99.90
36002;DHT22;22070;50.922;5.430;2023-12-20T00:05:17;7.70;99.90
36002;DHT22;22070;50.922;5.430;2023-12-20T00:07:43;7.70;99.90
36002;DHT22;22070;50.922;5.430;2023-12-20T00:10:09;7.60;99.90
36002;DHT22;22070;50.922;5.430;2023-12-20T00:12:35;7.60;99.90
36002;DHT22;22070;50.922;5.430;2023-12-20T00:15:00;7.60;99.90
36002;DHT22;22070;50.922;5.430;2023-12-20T00:17:26;7.50;99.90
36002;DHT22;22070;50.922;5.430;2023-12-20T00:19:51;7.40;99.90
36002;DHT22;22070;50.922;5.430;2023-12-20T00:22:17;7.40;99.90
36002;DHT22;22070;50.922;5.430;2023-12-20T00:24:43;7.40;99.90
36002;DHT22;22070;50.922;5.430;2023-12-20T00:27:08;7.40;99.90
36002;DHT22;22070;50.922;5.430;2023-12-20T00:29:34;7.50;99.90
36002;DHT22;22070;50.922;5.430;2023-12-20T00:32:00;7.50;99.90
36002;DHT22;22070;50.922;5.430;2023-12-20T00:34:25;7.50;99.90
36002;DHT22;22070;50.922;5.430;2023-12-20T00:36:51;7.50;99.90
36002;DHT22;22070;50.922;5.430;2023-12-20T00:39:16;7.50;99.90
36002;DHT22;22070;50.922;5.430;2023-12-20T00:41:42;7.50;99.90
36002;DHT22;22070;50.922;5.430;2023-12-20T00:44:08;7.50;99.90
36002;DHT22;22070;50.922;5.430;2023-12-20T00:46:33;7.40;99.90
36002;DHT22;22070;50.922;5.430;2023-12-20T00:48:59;7.30;99.90
36002;DHT22;22070;50.922;5.430;2023-12-20T00:51:25;7.30;99.90
36002;DHT22;22070;50.922;5.430;2023-12-20T00:53:50;7.30;99.90
36002;DHT22;22070;50.922;5.430;2023-12-20T00:56:20;7.20;99.90
36002;DHT22;22070;50.922;5.430;2023-12-20T00:58:46;7.30;99.90
36002;DHT22;22070;50.922;5.430;2023-12-20T01:01:11;7.30;99.90
36002;DHT22;22070;50.922;5.430;2023-12-20T01:03:37;7.20;99.90
36002;DHT22;22070;50.922;5.430;2023-12-20T01:06:03;7.10;99.90
36002;DHT22;22070;50.922;5.430;2023-12-20T01:08:30;7.20;99.90
36002;DHT22;22070;50.922;5.430;2023-12-20T01:10:55;7.10;99.90
36002;DHT22;22070;50.922;5.430;2023-12-20T01:13:21;7.20;99.90
36002;DHT22;22070;50.922;5.430;2023-12-20T01:15:47;7.10;99.90
36002;DHT22;22070;50.922;5.430;2023-12-20T01:18:13;7.10;99.90
36002;DHT22;22070;50.922;5.430;2023-12-20T01:20:39;7.20;99.90
36002;DHT22;22070;50.922;5.430;2023-12-20T01:23:05;7.10;99.90
36002;DHT22;22070;50.922;5.430;2023-12-20T01:25:30;7.10;99.90
36002;DHT22;22070;50.922;5.430;2023-12-20T01:27:56;7.10;99.90
36002;DHT22;22070;50.922;5.430;2023-12-20T01:30:21;7.10;99.90
36002;DHT22;22070;50.922;5.430;2023-12-20T01:32:47;7.00;99.90
36002;DHT22;22070;50.922;5.430;2023-12-20T01:35:13;7.00;99.90
36002;DHT22;22070;50.922;5.430;2023-12-20T01:37:39;7.00;99.90
36002;DHT22;22070;50.922;5.430;2023-12-20T01:40:04;7.00;99.90
36002;DHT22;22070;50.922;5.430;2023-12-20T01:42:30;6.90;99.90
36002;DHT22;22070;50.922;5.430;2023-12-20T01:44:56;6.90;99.90
36002;DHT22;22070;50.922;5.430;2023-12-20T01:47:21;6.80;99.90
36002;DHT22;22070;50.922;5.430;2023-12-20T01:49:48;6.90;99.90
36002;DHT22;22070;50.922;5.430;2023-12-20T01:52:14;6.90;99.90
36002;DHT22;22070;50.922;5.430;2023-12-20T01:54:41;6.80;99.90
36002;DHT22;22070;50.922;5.430;2023-12-20T01:57:08;6.70;99.90
36002;DHT22;22070;50.922;5.430;2023-12-20T01:59:34;6.70;99.90
36002;DHT22;22070;50.922;5.430;2023-12-20T02:02:00;6.70;99.90
36002;DHT22;22070;50.922;5.430;2023-12-20T02:04:27;6.60;99.90
36002;DHT22;22070;50.922;5.430;2023-12-20T02:06:53;6.50;99.90
36002;DHT22;22070;50.922;5.430;2023-12-20T02:09:19;6.60;99.90
36002;DHT22;22070;50.922;5.430;2023-12-20T02:11:44;6.60;99.90
36002;DHT22;22070;50.922;5.430;2023-12-20T02:14:10;6.60;99.90
36002;DHT22;22070;50.922;5.430;2023-12-20T02:16:36;6.50;99.90
36002;DHT22;22070;50.922;5.430;2023-12-20T02:19:03;6.60;99.90
36002;DHT22;22070;50.922;5.430;2023-12-20T02:21:32;6.60;99.90
36002;DHT22;22070;50.922;5.430;2023-12-20T02:24:01;6.50;99.90
36002;DHT22;22070;50.922;5.430;2023-12-20T02:26:27;6.50;99.90
36002;DHT22;22070;50.922;5.430;2023-12-20T02:28:52;6.40;99.90
36002;DHT22;22070;50.922;5.430;2023-12-20T02:31:21;6.40;99.90
36002;DHT22;22070;50.922;5.430;2023-12-20T02:33:47;6.40;99.90
36002;DHT22;22070;50.922;5.430;2023-12-20T02:36:13;6.30;99.90
36002;DHT22;22070;50.922;5.430;2023-12-20T02:38:39;6.30;99.90
36002;DHT22;22070;50.922;5.430;2023-12-20T02:41:04;6.20;99.90
36002;DHT22;22070;50.922;5.430;2023-12-20T02:43:30;6.20;99.90
36002;DHT22;22070;50.922;5.430;2023-12-20T02:45:56;6.30;99.90
36002;DHT22;22070;50.922;5.430;2023-12-20T02:48:22;6.30;99.90
36002;DHT22;22070;50.922;5.430;2023-12-20T02:50:47;6.20;99.90
36002;DHT22;22070;50.922;5.430;2023-12-20T02:53:14;6.10;99.90
36002;DHT22;22070;50.922;5.430;2023-12-20T02:55:40;6.20;99.90
36002;DHT22;22070;50.922;5.430;2023-12-20T02:58:05;6.20;99.90
36002;DHT22;22070;50.922;5.430;2023-12-20T03:00:31;6.20;99.90
36002;DHT22;22070;50.922;5.430;2023-12-20T03:02:57;6.20;99.90
36002;DHT22;22070;50.922;5.430;2023-12-20T03:05:25;6.10;99.90
36002;DHT22;22070;50.922;5.430;2023-12-20T03:07:50;6.10;99.90
36002;DHT22;22070;50.922;5.430;2023-12-20T03:10:16;6.10;99.90
36002;DHT22;22070;50.922;5.430;2023-12-20T03:12:42;6.10;99.90
36002;DHT22;22070;50.922;5.430;2023-12-20T03:15:07;6.10;99.90
36002;DHT22;22070;50.922;5.430;2023-12-20T03:17:33;6.10;99.90
36002;DHT22;22070;50.922;5.430;2023-12-20T03:19:59;6.10;99.90
36002;DHT22;22070;50.922;5.430;2023-12-20T03:22:24;6.10;99.90
36002;DHT22;22070;50.922;5.430;2023-12-20T03:24:50;6.20;99.90
36002;DHT22;22070;50.922;5.430;2023-12-20T03:27:16;6.20;99.90
36002;DHT22;22070;50.922;5.430;2023-12-20T03:29:42;6.10;99.90
36002;DHT22;22070;50.922;5.430;2023-12-20T03:32:08;6.20;99.90
36002;DHT22;22070;50.922;5.430;2023-12-20T03:34:34;6.20;99.90
36002;DHT22;22070;50.922;5.430;2023-12-20T03:36:59;6.20;99.90
36002;DHT22;22070;50.922;5.430;2023-12-20T03:39:25;6.20;99.90
36002;DHT22;22070;50.922;5.430;2023-12-20T03:41:50;6.20;99.90
36002;DHT22;22070;50.922;5.430;2023-12-20T03:44:16;6.20;99.90
36002;DHT22;22070;50.922;5.430;2023-12-20T03:46:42;6.20;99.90
36002;DHT22;22070;50.922;5.430;2023-12-20T03:49:07;6.20;99.90
36002;DHT22;22070;50.922;5.430;2023-12-20T03:51:33;6.10;99.90
36002;DHT22;22070;50.922;5.430;2023-12-20T03:53:58;6.20;99.90
36002;DHT22;22070;50.922;5.430;2023-12-20T03:56:24;6.30;99.90
36002;DHT22;22070;50.922;5.430;2023-12-20T03:58:50;6.30;99.90
36002;DHT22;22070;50.922;5.430;2023-12-20T04:01:15;6.30;99.90
36002;DHT22;22070;50.922;5.430;2023-12-20T04:03:41;6.30;99.90
36002;DHT22;22070;50.922;5.430;2023-12-20T04:06:06;6.30;99.90
36002;DHT22;22070;50.922;5.430;2023-12-20T04:08:32;6.30;99.90
36002;DHT22;22070;50.922;5.430;2023-12-20T04:10:58;6.30;99.90
36002;DHT22;22070;50.922;5.430;2023-12-20T04:13:23;6.40;99.90
36002;DHT22;22070;50.922;5.430;2023-12-20T04:15:49;6.30;99.90
36002;DHT22;22070;50.922;5.430;2023-12-20T04:18:16;6.30;99.90
36002;DHT22;22070;50.922;5.430;2023-12-20T04:20:41;6.20;99.90
36002;DHT22;22070;50.922;5.430;2023-12-20T04:23:07;6.20;99.90
36002;DHT22;22070;50.922;5.430;2023-12-20T04:25:33;6.30;99.90
36002;DHT22;22070;50.922;5.430;2023-12-20T04:27:58;6.30;99.90
36002;DHT22;22070;50.922;5.430;2023-12-20T04:30:24;6.30;99.90
36002;DHT22;22070;50.922;5.430;2023-12-20T04:32:49;6.40;99.90
36002;DHT22;22070;50.922;5.430;2023-12-20T04:35:15;6.40;99.90
36002;DHT22;22070;50.922;5.430;2023-12-20T04:37:41;6.40;99.90
36002;DHT22;22070;50.922;5.430;2023-12-20T04:40:07;6.40;99.90
36002;DHT22;22070;50.922;5.430;2023-12-20T04:42:33;6.30;99.90
36002;DHT22;22070;50.922;5.430;2023-12-20T04:44:59;6.30;99.90
36002;DHT22;22070;50.922;5.430;2023-12-20T04:47:24;6.20;99.90
36002;DHT22;22070;50.922;5.430;2023-12-20T04:49:50;6.30;99.90
36002;DHT22;22070;50.922;5.430;2023-12-20T04:52:15;6.20;99.90
36002;DHT22;22070;50.922;5.430;2023-12-20T04:54:41;6.30;99.90
36002;DHT22;22070;50.922;5.430;2023-12-20T04:57:07;6.30;99.90
36002;DHT22;22070;50.922;5.430;2023-12-20T04:59:32;6.40;99.90
36002;DHT22;22070;50.922;5.430;2023-12-20T05:01:58;6.40;99.90
36002;DHT22;22070;50.922;5.430;2023-12-20T05:04:24;6.40;99.90
36002;DHT22;22070;50.922;5.430;2023-12-20T05:06:49;6.40;99.90
36002;DHT22;22070;50.922;5.430;2023-12-20T05:09:15;6.50;99.90
36002;DHT22;22070;50.922;5.430;2023-12-20T05:11:41;6.40;99.90
36002;DHT22;22070;50.922;5.430;2023-12-20T05:14:07;6.40;99.90
36002;DHT22;22070;50.922;5.430;2023-12-20T05:16:33;6.30;99.90
36002;DHT22;22070;50.922;5.430;2023-12-20T05:18:58;6.30;99.90
36002;DHT22;22070;50.922;5.430;2023-12-20T05:21:26;6.40;99.90
36002;DHT22;22070;50.922;5.430;2023-12-20T05:23:52;6.30;99.90
36002;DHT22;22070;50.922;5.430;2023-12-20T05:26:18;6.30;99.90
36002;DHT22;22070;50.922;5.430;2023-12-20T05:28:44;6.30;99.90
36002;DHT22;22070;50.922;5.430;2023-12-20T05:31:09;6.40;99.90
36002;DHT22;22070;50.922;5.430;2023-12-20T05:33:35;6.30;99.90
36002;DHT22;22070;50.922;5.430;2023-12-20T05:36:01;6.30;99.90
36002;DHT22;22070;50.922;5.430;2023-12-20T05:38:26;6.30;99.90
36002;DHT22;22070;50.922;5.430;2023-12-20T05:40:52;6.30;99.90
36002;DHT22;22070;50.922;5.430;2023-12-20T05:43:18;6.30;99.90
36002;DHT22;22070;50.922;5.430;2023-12-20T05:45:43;6.20;99.90
36002;DHT22;22070;50.922;5.430;2023-12-20T05:48:09;6.20;99.90
36002;DHT22;22070;50.922;5.430;2023-12-20T05:50:34;6.10;99.90
36002;DHT22;22070;50.922;5.430;2023-12-20T05:53:00;6.10;99.90
36002;DHT22;22070;50.922;5.430;2023-12-20T05:55:26;6.00;99.90
36002;DHT22;22070;50.922;5.430;2023-12-20T05:57:52;6.00;99.90
36002;DHT22;22070;50.922;5.430;2023-12-20T06:00:18;6.00;99.90
36002;DHT22;22070;50.922;5.430;2023-12-20T06:02:44;6.00;99.90
36002;DHT22;22070;50.922;5.430;2023-12-20T06:05:09;6.00;99.90
36002;DHT22;22070;50.922;5.430;2023-12-20T06:07:35;6.00;99.90
36002;DHT22;22070;50.922;5.430;2023-12-20T06:10:01;6.00;99.90
36002;DHT22;22070;50.922;5.430;2023-12-20T06:12:26;5.90;99.90
36002;DHT22;22070;50.922;5.430;2023-12-20T06:14:54;5.80;99.90
36002;DHT22;22070;50.922;5.430;2023-12-20T06:17:20;5.80;99.90
36002;DHT22;22070;50.922;5.430;2023-12-20T06:19:45;5.80;99.90
36002;DHT22;22070;50.922;5.430;2023-12-20T06:22:14;5.90;99.90
36002;DHT22;22070;50.922;5.430;2023-12-20T06:24:39;5.90;99.90
36002;DHT22;22070;50.922;5.430;2023-12-20T06:27:05;5.90;99.90
36002;DHT22;22070;50.922;5.430;2023-12-20T06:29:31;5.90;99.90
36002;DHT22;22070;50.922;5.430;2023-12-20T06:31:56;5.80;99.90
36002;DHT22;22070;50.922;5.430;2023-12-20T06:34:22;5.70;99.90
36002;DHT22;22070;50.922;5.430;2023-12-20T06:36:48;5.80;99.90
36002;DHT22;22070;50.922;5.430;2023-12-20T06:39:13;5.80;99.90
36002;DHT22;22070;50.922;5.430;2023-12-20T06:41:39;5.80;99.90
36002;DHT22;22070;50.922;5.430;2023-12-20T06:44:05;5.80;99.90
36002;DHT22;22070;50.922;5.430;2023-12-20T06:46:31;5.90;99.90
36002;DHT22;22070;50.922;5.430;2023-12-20T06:48:57;5.90;99.90
36002;DHT22;22070;50.922;5.430;2023-12-20T06:51:22;6.00;99.90
36002;DHT22;22070;50.922;5.430;2023-12-20T06:53:51;6.00;99.90
36002;DHT22;22070;50.922;5.430;2023-12-20T06:56:17;6.00;99.90
36002;DHT22;22070;50.922;5.430;2023-12-20T06:58:43;6.00;99.90
36002;DHT22;22070;50.922;5.430;2023-12-20T07:01:12;6.00;99.90
36002;DHT22;22070;50.922;5.430;2023-12-20T07:03:38;6.10;99.90
36002;DHT22;22070;50.922;5.430;2023-12-20T07:06:05;6.00;99.90
36002;DHT22;22070;50.922;5.430;2023-12-20T07:08:30;6.00;99.90
36002;DHT22;22070;50.922;5.430;2023-12-20T07:10:56;6.10;99.90
36002;DHT22;22070;50.922;5.430;2023-12-20T07:13:22;6.10;99.90
36002;DHT22;22070;50.922;5.430;2023-12-20T07:15:48;6.00;99.90
36002;DHT22;22070;50.922;5.430;2023-12-20T07:18:14;6.00;99.90
36002;DHT22;22070;50.922;5.430;2023-12-20T07:20:39;6.00;99.90
36002;DHT22;22070;50.922;5.430;2023-12-20T07:23:05;6.00;99.90
36002;DHT22;22070;50.922;5.430;2023-12-20T07:25:30;6.00;99.90
36002;DHT22;22070;50.922;5.430;2023-12-20T07:27:58;6.00;99.90
36002;DHT22;22070;50.922;5.430;2023-12-20T07:30:23;6.00;99.90
36002;DHT22;22070;50.922;5.430;2023-12-20T07:32:49;6.00;99.90
36002;DHT22;22070;50.922;5.430;2023-12-20T07:35:16;6.00;99.90
36002;DHT22;22070;50.922;5.430;2023-12-20T07:37:41;5.90;99.90
36002;DHT22;22070;50.922;5.430;2023-12-20T07:40:07;5.80;99.90
36002;DHT22;22070;50.922;5.430;2023-12-20T07:42:33;5.90;99.90
36002;DHT22;22070;50.922;5.430;2023-12-20T07:44:59;5.90;99.90
36002;DHT22;22070;50.922;5.430;2023-12-20T07:47:24;5.80;99.90
36002;DHT22;22070;50.922;5.430;2023-12-20T07:49:51;5.90;99.90
36002;DHT22;22070;50.922;5.430;2023-12-20T07:52:18;5.90;99.90
36002;DHT22;22070;50.922;5.430;2023-12-20T07:54:44;5.90;99.90
36002;DHT22;22070;50.922;5.430;2023-12-20T07:57:10;5.90;99.90
36002;DHT22;22070;50.922;5.430;2023-12-20T07:59:36;5.80;99.90
36002;DHT22;22070;50.922;5.430;2023-12-20T08:02:02;5.80;99.90
36002;DHT22;22070;50.922;5.430;2023-12-20T08:04:27;5.80;99.90
36002;DHT22;22070;50.922;5.430;2023-12-20T08:06:53;5.90;99.90
36002;DHT22;22070;50.922;5.430;2023-12-20T08:09:19;5.80;99.90
36002;DHT22;22070;50.922;5.430;2023-12-20T08:11:46;5.80;99.90
36002;DHT22;22070;50.922;5.430;2023-12-20T08:14:11;5.90;99.90
36002;DHT22;22070;50.922;5.430;2023-12-20T08:16:37;5.70;99.90
36002;DHT22;22070;50.922;5.430;2023-12-20T08:19:03;5.70;99.90
36002;DHT22;22070;50.922;5.430;2023-12-20T08:21:28;5.80;99.90
36002;DHT22;22070;50.922;5.430;2023-12-20T08:23:54;5.70;99.90
36002;DHT22;22070;50.922;5.430;2023-12-20T08:26:20;5.80;99.90
36002;DHT22;22070;50.922;5.430;2023-12-20T08:28:47;5.80;99.90
36002;DHT22;22070;50.922;5.430;2023-12-20T08:31:16;5.70;99.90
36002;DHT22;22070;50.922;5.430;2023-12-20T08:33:46;5.70;99.90
36002;DHT22;22070;50.922;5.430;2023-12-20T08:36:12;5.70;99.90
36002;DHT22;22070;50.922;5.430;2023-12-20T08:38:38;5.70;99.90
36002;DHT22;22070;50.922;5.430;2023-12-20T08:41:04;5.80;99.90
36002;DHT22;22070;50.922;5.430;2023-12-20T08:43:34;5.70;99.90
36002;DHT22;22070;50.922;5.430;2023-12-20T08:46:00;5.80;99.90
36002;DHT22;22070;50.922;5.430;2023-12-20T08:48:26;5.80;99.90
36002;DHT22;22070;50.922;5.430;2023-12-20T08:50:52;5.90;99.90
36002;DHT22;22070;50.922;5.430;2023-12-20T08:53:20;6.00;99.90
36002;DHT22;22070;50.922;5.430;2023-12-20T08:55:47;5.90;99.90
36002;DHT22;22070;50.922;5.430;2023-12-20T08:58:14;6.00;99.90
36002;DHT22;22070;50.922;5.430;2023-12-20T09:00:40;6.00;99.90
36002;DHT22;22070;50.922;5.430;2023-12-20T09:03:06;6.00;99.90
36002;DHT22;22070;50.922;5.430;2023-12-20T09:05:31;5.90;99.90
36002;DHT22;22070;50.922;5.430;2023-12-20T09:07:57;6.00;99.90
36002;DHT22;22070;50.922;5.430;2023-12-20T09:10:23;6.00;99.90
36002;DHT22;22070;50.922;5.430;2023-12-20T09:12:50;6.00;99.90
36002;DHT22;22070;50.922;5.430;2023-12-20T09:15:16;6.10;99.90
36002;DHT22;22070;50.922;5.430;2023-12-20T09:17:41;6.00;99.90
36002;DHT22;22070;50.922;5.430;2023-12-20T09:20:07;6.00;99.90
36002;DHT22;22070;50.922;5.430;2023-12-20T09:22:34;6.00;99.90
36002;DHT22;22070;50.922;5.430;2023-12-20T09:25:00;6.10;99.90
36002;DHT22;22070;50.922;5.430;2023-12-20T09:27:25;6.10;99.90
36002;DHT22;22070;50.922;5.430;2023-12-20T09:29:51;6.10;99.90
36002;DHT22;22070;50.922;5.430;2023-12-20T09:32:19;6.20;99.90
36002;DHT22;22070;50.922;5.430;2023-12-20T09:34:45;6.20;99.90
36002;DHT22;22070;50.922;5.430;2023-12-20T09:37:11;6.20;99.90
36002;DHT22;22070;50.922;5.430;2023-12-20T09:39:37;6.20;99.90
36002;DHT22;22070;50.922;5.430;2023-12-20T09:42:03;6.20;99.90
36002;DHT22;22070;50.922;5.430;2023-12-20T09:44:29;6.20;99.90
36002;DHT22;22070;50.922;5.430;2023-12-20T09:46:56;6.30;99.90
36002;DHT22;22070;50.922;5.430;2023-12-20T09:49:22;6.30;99.90
36002;DHT22;22070;50.922;5.430;2023-12-20T09:51:50;6.30;99.90
36002;DHT22;22070;50.922;5.430;2023-12-20T09:54:18;6.40;99.90
36002;DHT22;22070;50.922;5.430;2023-12-20T09:56:44;6.40;99.90
36002;DHT22;22070;50.922;5.430;2023-12-20T09:59:10;6.50;99.90
36002;DHT22;22070;50.922;5.430;2023-12-20T10:01:36;6.60;99.90
36002;DHT22;22070;50.922;5.430;2023-12-20T10:04:08;6.60;99.90
36002;DHT22;22070;50.922;5.430;2023-12-20T10:06:44;6.70;99.90
36002;DHT22;22070;50.922;5.430;2023-12-20T10:09:10;6.80;99.90
36002;DHT22;22070;50.922;5.430;2023-12-20T10:11:37;6.80;99.90
36002;DHT22;22070;50.922;5.430;2023-12-20T10:14:03;6.90;99.90
36002;DHT22;22070;50.922;5.430;2023-12-20T10:16:30;7.00;99.90
36002;DHT22;22070;50.922;5.430;2023-12-20T10:18:56;7.00;99.90
36002;DHT22;22070;50.922;5.430;2023-12-20T10:21:25;7.00;99.90
36002;DHT22;22070;50.922;5.430;2023-12-20T10:23:55;7.00;99.90
36002;DHT22;22070;50.922;5.430;2023-12-20T10:26:25;7.00;99.90
36002;DHT22;22070;50.922;5.430;2023-12-20T10:28:56;7.10;99.90
36002;DHT22;22070;50.922;5.430;2023-12-20T10:31:34;7.00;99.90
36002;DHT22;22070;50.922;5.430;2023-12-20T10:34:03;7.10;99.90
36002;DHT22;22070;50.922;5.430;2023-12-20T10:36:31;7.00;99.90
36002;DHT22;22070;50.922;5.430;2023-12-20T10:38:58;7.00;99.90
36002;DHT22;22070;50.922;5.430;2023-12-20T10:41:29;7.00;99.90
36002;DHT22;22070;50.922;5.430;2023-12-20T10:44:00;7.10;99.90
36002;DHT22;22070;50.922;5.430;2023-12-20T10:46:27;7.10;99.90
36002;DHT22;22070;50.922;5.430;2023-12-20T10:48:54;7.10;99.90
36002;DHT22;22070;50.922;5.430;2023-12-20T10:51:21;7.10;99.90
36002;DHT22;22070;50.922;5.430;2023-12-20T10:53:50;7.20;99.90
36002;DHT22;22070;50.922;5.430;2023-12-20T10:56:19;7.30;99.90
36002;DHT22;22070;50.922;5.430;2023-12-20T10:58:47;7.30;99.90
36002;DHT22;22070;50.922;5.430;2023-12-20T11:01:14;7.30;99.90
36002;DHT22;22070;50.922;5.430;2023-12-20T11:03:53;7.30;99.90
36002;DHT22;22070;50.922;5.430;2023-12-20T11:09:19;7.30;99.90
36002;DHT22;22070;50.922;5.430;2023-12-20T11:12:39;7.30;99.90
36002;DHT22;22070;50.922;5.430;2023-12-20T11:14:50;7.40;99.90
36002;DHT22;22070;50.922;5.430;2023-12-20T11:17:16;7.40;99.90
36002;DHT22;22070;50.922;5.430;2023-12-20T11:22:20;7.50;99.90
36002;DHT22;22070;50.922;5.430;2023-12-20T11:24:47;7.50;99.90
36002;DHT22;22070;50.922;5.430;2023-12-20T11:27:13;7.60;99.90
36002;DHT22;22070;50.922;5.430;2023-12-20T11:29:39;7.60;99.90
36002;DHT22;22070;50.922;5.430;2023-12-20T11:34:51;7.60;99.90
36002;DHT22;22070;50.922;5.430;2023-12-20T11:37:17;7.60;99.90
36002;DHT22;22070;50.922;5.430;2023-12-20T11:39:44;7.60;99.90
36002;DHT22;22070;50.922;5.430;2023-12-20T11:42:10;7.70;99.90
36002;DHT22;22070;50.922;5.430;2023-12-20T11:44:39;7.70;99.90
36002;DHT22;22070;50.922;5.430;2023-12-20T11:47:04;7.70;99.90
36002;DHT22;22070;50.922;5.430;2023-12-20T11:49:30;7.80;99.90
36002;DHT22;22070;50.922;5.430;2023-12-20T11:51:56;7.90;99.90
36002;DHT22;22070;50.922;5.430;2023-12-20T11:54:22;7.80;99.90
36002;DHT22;22070;50.922;5.430;2023-12-20T11:56:48;7.90;99.90
36002;DHT22;22070;50.922;5.430;2023-12-20T11:59:14;7.90;99.90
36002;DHT22;22070;50.922;5.430;2023-12-20T12:01:47;7.90;99.90
36002;DHT22;22070;50.922;5.430;2023-12-20T12:04:13;7.90;99.90
36002;DHT22;22070;50.922;5.430;2023-12-20T12:06:39;7.90;99.90
36002;DHT22;22070;50.922;5.430;2023-12-20T12:09:05;7.90;99.90
36002;DHT22;22070;50.922;5.430;2023-12-20T12:11:30;8.00;99.90
36002;DHT22;22070;50.922;5.430;2023-12-20T12:13:56;7.90;99.90
36002;DHT22;22070;50.922;5.430;2023-12-20T12:16:22;7.70;99.90
36002;DHT22;22070;50.922;5.430;2023-12-20T12:18:58;7.80;99.90
36002;DHT22;22070;50.922;5.430;2023-12-20T12:21:24;7.70;99.90
36002;DHT22;22070;50.922;5.430;2023-12-20T12:23:50;7.70;99.90
36002;DHT22;22070;50.922;5.430;2023-12-20T12:26:16;7.70;99.90
36002;DHT22;22070;50.922;5.430;2023-12-20T12:28:42;7.70;99.90
36002;DHT22;22070;50.922;5.430;2023-12-20T12:31:09;7.70;99.90
36002;DHT22;22070;50.922;5.430;2023-12-20T12:33:38;7.70;99.90
36002;DHT22;22070;50.922;5.430;2023-12-20T12:36:04;7.70;99.90
36002;DHT22;22070;50.922;5.430;2023-12-20T12:38:32;7.70;99.90
36002;DHT22;22070;50.922;5.430;2023-12-20T12:40:58;7.70;99.90
36002;DHT22;22070;50.922;5.430;2023-12-20T12:43:25;7.70;99.90
36002;DHT22;22070;50.922;5.430;2023-12-20T12:45:51;7.70;99.90
36002;DHT22;22070;50.922;5.430;2023-12-20T12:48:17;7.70;99.90
36002;DHT22;22070;50.922;5.430;2023-12-20T12:50:42;7.80;99.90
36002;DHT22;22070;50.922;5.430;2023-12-20T12:53:09;7.80;99.90
36002;DHT22;22070;50.922;5.430;2023-12-20T12:55:35;7.80;99.90
36002;DHT22;22070;50.922;5.430;2023-12-20T12:58:01;7.70;99.90
36002;DHT22;22070;50.922;5.430;2023-12-20T13:00:27;7.70;99.90
36002;DHT22;22070;50.922;5.430;2023-12-20T13:02:53;7.80;99.90
36002;DHT22;22070;50.922;5.430;2023-12-20T13:05:18;7.80;99.90
36002;DHT22;22070;50.922;5.430;2023-12-20T13:07:44;7.80;99.90
36002;DHT22;22070;50.922;5.430;2023-12-20T13:10:11;7.90;99.90
36002;DHT22;22070;50.922;5.430;2023-12-20T13:12:37;7.90;99.90
36002;DHT22;22070;50.922;5.430;2023-12-20T13:15:03;8.00;99.90
36002;DHT22;22070;50.922;5.430;2023-12-20T13:17:32;8.00;99.90
36002;DHT22;22070;50.922;5.430;2023-12-20T13:19:57;8.00;99.90
36002;DHT22;22070;50.922;5.430;2023-12-20T13:22:23;8.00;99.90
36002;DHT22;22070;50.922;5.430;2023-12-20T13:24:49;8.10;99.90
36002;DHT22;22070;50.922;5.430;2023-12-20T13:27:14;8.00;99.90
36002;DHT22;22070;50.922;5.430;2023-12-20T13:29:40;8.00;99.90
36002;DHT22;22070;50.922;5.430;2023-12-20T13:32:06;8.00;99.90
36002;DHT22;22070;50.922;5.430;2023-12-20T13:34:32;8.10;99.90
36002;DHT22;22070;50.922;5.430;2023-12-20T13:36:57;8.10;99.90
36002;DHT22;22070;50.922;5.430;2023-12-20T13:39:23;8.10;99.90
36002;DHT22;22070;50.922;5.430;2023-12-20T13:41:49;8.10;99.90
36002;DHT22;22070;50.922;5.430;2023-12-20T13:44:15;8.10;99.90
36002;DHT22;22070;50.922;5.430;2023-12-20T13:46:41;8.10;99.90
36002;DHT22;22070;50.922;5.430;2023-12-20T13:49:07;8.10;99.90
36002;DHT22;22070;50.922;5.430;2023-12-20T13:51:32;8.10;99.90
36002;DHT22;22070;50.922;5.430;2023-12-20T13:53:58;8.10;99.90
36002;DHT22;22070;50.922;5.430;2023-12-20T13:56:25;8.10;99.90
36002;DHT22;22070;50.922;5.430;2023-12-20T13:58:50;8.10;99.90
36002;DHT22;22070;50.922;5.430;2023-12-20T14:01:17;8.10;99.90
36002;DHT22;22070;50.922;5.430;2023-12-20T14:03:42;8.10;99.90
36002;DHT22;22070;50.922;5.430;2023-12-20T14:06:08;8.10;99.90
36002;DHT22;22070;50.922;5.430;2023-12-20T14:08:34;8.10;99.90
36002;DHT22;22070;50.922;5.430;2023-12-20T14:11:01;8.20;99.90
36002;DHT22;22070;50.922;5.430;2023-12-20T14:13:27;8.10;99.90
36002;DHT22;22070;50.922;5.430;2023-12-20T14:15:52;8.10;99.90
36002;DHT22;22070;50.922;5.430;2023-12-20T14:18:21;8.10;99.90
36002;DHT22;22070;50.922;5.430;2023-12-20T14:20:48;8.10;99.90
36002;DHT22;22070;50.922;5.430;2023-12-20T14:23:13;8.10;99.90
36002;DHT22;22070;50.922;5.430;2023-12-20T14:25:42;8.10;99.90
36002;DHT22;22070;50.922;5.430;2023-12-20T14:28:08;8.10;99.90
36002;DHT22;22070;50.922;5.430;2023-12-20T14:30:33;8.20;99.90
36002;DHT22;22070;50.922;5.430;2023-12-20T14:33:00;8.20;99.90
36002;DHT22;22070;50.922;5.430;2023-12-20T14:35:26;8.20;99.90
36002;DHT22;22070;50.922;5.430;2023-12-20T14:37:51;8.10;99.90
36002;DHT22;22070;50.922;5.430;2023-12-20T14:40:18;8.20;99.90
36002;DHT22;22070;50.922;5.430;2023-12-20T14:42:44;8.20;99.90
36002;DHT22;22070;50.922;5.430;2023-12-20T14:45:10;8.20;99.90
36002;DHT22;22070;50.922;5.430;2023-12-20T14:47:36;8.20;99.90
36002;DHT22;22070;50.922;5.430;2023-12-20T14:50:06;8.20;99.90
36002;DHT22;22070;50.922;5.430;2023-12-20T14:52:32;8.20;99.90
36002;DHT22;22070;50.922;5.430;2023-12-20T14:55:02;8.20;99.90
36002;DHT22;22070;50.922;5.430;2023-12-20T14:57:28;8.30;99.90
36002;DHT22;22070;50.922;5.430;2023-12-20T14:59:55;8.30;99.90
36002;DHT22;22070;50.922;5.430;2023-12-20T15:02:21;8.20;99.90
36002;DHT22;22070;50.922;5.430;2023-12-20T15:04:46;8.20;99.90
36002;DHT22;22070;50.922;5.430;2023-12-20T15:07:12;8.30;99.90
36002;DHT22;22070;50.922;5.430;2023-12-20T15:09:38;8.30;99.90
36002;DHT22;22070;50.922;5.430;2023-12-20T15:12:04;8.30;99.90
36002;DHT22;22070;50.922;5.430;2023-12-20T15:14:30;8.40;99.90
36002;DHT22;22070;50.922;5.430;2023-12-20T15:16:55;8.40;99.90
36002;DHT22;22070;50.922;5.430;2023-12-20T15:19:22;8.40;99.90
36002;DHT22;22070;50.922;5.430;2023-12-20T15:21:48;8.40;99.90
36002;DHT22;22070;50.922;5.430;2023-12-20T15:24:13;8.40;99.90
36002;DHT22;22070;50.922;5.430;2023-12-20T15:26:44;8.40;99.90
36002;DHT22;22070;50.922;5.430;2023-12-20T15:29:11;8.50;99.90
36002;DHT22;22070;50.922;5.430;2023-12-20T15:31:45;8.40;99.90
36002;DHT22;22070;50.922;5.430;2023-12-20T15:34:11;8.40;99.90
36002;DHT22;22070;50.922;5.430;2023-12-20T15:36:37;8.50;99.90
36002;DHT22;22070;50.922;5.430;2023-12-20T15:39:03;8.40;99.90
36002;DHT22;22070;50.922;5.430;2023-12-20T15:41:29;8.40;99.90
36002;DHT22;22070;50.922;5.430;2023-12-20T15:43:55;8.40;99.90
36002;DHT22;22070;50.922;5.430;2023-12-20T15:46:21;8.40;99.90